sensor_id;sensor_type;location;lat;lon;timestamp;pressure;altitude;pressure_sealevel;temperature;humidity
13553;BME280;6847;48.830;9.116;2023-01-19T06:03:09;96696.59;;;-0.94;59.56
13553;BME280;6847;48.830;9.116;2023-01-19T06:05:56;96516.22;;;-2.11;59.63
13553;BME280;6847;48.830;9.116;2023-01-19T06:08:42;96838.66;;;0.02;59.81
13553;BME280;6847;48.830;9.116;2023-01-19T06:11:28;96828.75;;;-0.03;60.19
13553;BME280;6847;48.830;9.116;2023-01-19T06:14:16;96498.59;;;-2.17;59.27
13553;BME280;6847;48.830;9.116;2023-01-19T06:17:02;96484.09;;;-2.26;59.21
13553;BME280;6847;48.830;9.116;2023-01-19T06:19:50;96403.88;;;-2.80;59.33
13553;BME280;6847;48.830;9.116;2023-01-19T06:22:36;96952.59;;;0.68;59.50
13553;BME280;6847;48.830;9.116;2023-01-19T06:25:24;96852.97;;;0.12;59.96
13553;BME280;6847;48.830;9.116;2023-01-19T06:28:10;96517.94;;;-2.05;59.54
13553;BME280;6847;48.830;9.116;2023-01-19T08:14:55;97006.53;;;10.54;45.85
13553;BME280;6847;48.830;9.116;2023-01-19T08:17:43;97002.16;;;10.86;46.46
13553;BME280;6847;48.830;9.116;2023-01-19T08:20:28;97031.63;;;10.73;47.55
13553;BME280;6847;48.830;9.116;2023-01-19T08:23:15;96982.88;;;10.46;48.89
13553;BME280;6847;48.830;9.116;2023-01-19T08:26:01;97039.47;;;11.16;48.65
13553;BME280;6847;48.830;9.116;2023-01-19T08:28:49;97038.25;;;10.35;49.99
13553;BME280;6847;48.830;9.116;2023-01-19T08:31:35;97038.97;;;8.57;53.17
13553;BME280;6847;48.830;9.116;2023-01-19T08:34:20;97040.75;;;8.03;54.38
13553;BME280;6847;48.830;9.116;2023-01-19T08:37:05;97037.28;;;9.56;52.56
13553;BME280;6847;48.830;9.116;2023-01-19T08:39:50;97051.31;;;10.93;49.57
13553;BME280;6847;48.830;9.116;2023-01-19T08:42:36;97051.06;;;11.58;48.29
13553;BME280;6847;48.830;9.116;2023-01-19T08:45:22;97049.84;;;12.13;48.12
13553;BME280;6847;48.830;9.116;2023-01-19T08:48:30;97049.06;;;12.66;47.24
13553;BME280;6847;48.830;9.116;2023-01-19T08:51:20;97046.09;;;13.47;46.33
13553;BME280;6847;48.830;9.116;2023-01-19T08:54:06;97051.38;;;14.81;44.86
13553;BME280;6847;48.830;9.116;2023-01-19T08:56:54;97055.56;;;14.70;45.00
13553;BME280;6847;48.830;9.116;2023-01-19T08:59:40;97049.06;;;13.28;47.72
13553;BME280;6847;48.830;9.116;2023-01-19T09:02:25;97061.25;;;11.11;51.44
13553;BME280;6847;48.830;9.116;2023-01-19T09:05:12;97059.41;;;9.77;53.87
13553;BME280;6847;48.830;9.116;2023-01-19T09:08:02;97066.31;;;10.39;53.14
13553;BME280;6847;48.830;9.116;2023-01-19T09:10:49;97066.13;;;10.17;53.44
13553;BME280;6847;48.830;9.116;2023-01-19T09:13:35;97066.97;;;9.13;54.80
13553;BME280;6847;48.830;9.116;2023-01-19T09:16:21;97066.53;;;8.20;55.77
13553;BME280;6847;48.830;9.116;2023-01-19T09:19:06;97070.22;;;7.46;56.75
13553;BME280;6847;48.830;9.116;2023-01-19T09:21:53;97076.13;;;6.83;57.02
13553;BME280;6847;48.830;9.116;2023-01-19T09:24:39;97072.44;;;6.34;57.99
13553;BME280;6847;48.830;9.116;2023-01-19T09:27:26;97073.19;;;5.83;58.14
13553;BME280;6847;48.830;9.116;2023-01-19T09:30:12;97008.34;;;5.09;57.96
13553;BME280;6847;48.830;9.116;2023-01-19T09:33:00;96938.34;;;4.38;57.86
13553;BME280;6847;48.830;9.116;2023-01-19T09:35:50;97011.41;;;4.80;58.00
13553;BME280;6847;48.830;9.116;2023-01-19T09:38:41;97072.97;;;5.07;58.34
13553;BME280;6847;48.830;9.116;2023-01-19T09:45:48;97070.47;;;4.91;57.05
13553;BME280;6847;48.830;9.116;2023-01-19T09:48:43;97076.41;;;4.98;57.61
13553;BME280;6847;48.830;9.116;2023-01-19T09:51:34;97075.38;;;5.04;57.11
13553;BME280;6847;48.830;9.116;2023-01-19T09:54:28;97071.47;;;5.42;57.08
13553;BME280;6847;48.830;9.116;2023-01-19T09:57:17;97071.38;;;6.14;56.61
13553;BME280;6847;48.830;9.116;2023-01-19T10:00:09;97050.63;;;6.55;55.77
13553;BME280;6847;48.830;9.116;2023-01-19T10:02:58;97063.78;;;6.62;55.16
13553;BME280;6847;48.830;9.116;2023-01-19T10:05:52;97072.09;;;6.71;55.60
13553;BME280;6847;48.830;9.116;2023-01-19T10:08:46;97033.03;;;6.93;55.24
13553;BME280;6847;48.830;9.116;2023-01-19T10:11:42;97058.91;;;8.32;54.12
13553;BME280;6847;48.830;9.116;2023-01-19T10:14:33;97063.19;;;9.14;53.42
13553;BME280;6847;48.830;9.116;2023-01-19T10:17:31;97061.50;;;9.61;53.04
13553;BME280;6847;48.830;9.116;2023-01-19T10:20:25;97061.97;;;9.87;53.08
13553;BME280;6847;48.830;9.116;2023-01-19T10:23:26;97057.28;;;10.62;52.47
13553;BME280;6847;48.830;9.116;2023-01-19T10:26:17;97056.06;;;11.92;50.47
13553;BME280;6847;48.830;9.116;2023-01-19T10:29:09;97071.53;;;11.91;51.19
13553;BME280;6847;48.830;9.116;2023-01-19T10:32:03;97069.06;;;11.54;52.29
13553;BME280;6847;48.830;9.116;2023-01-19T10:34:52;97020.22;;;10.77;52.85
13553;BME280;6847;48.830;9.116;2023-01-19T10:37:39;97025.19;;;10.05;53.69
13553;BME280;6847;48.830;9.116;2023-01-19T10:40:29;97063.06;;;9.24;54.37
13553;BME280;6847;48.830;9.116;2023-01-19T10:43:34;97028.53;;;8.16;55.30
13553;BME280;6847;48.830;9.116;2023-01-19T10:46:26;97054.75;;;7.66;55.76
13553;BME280;6847;48.830;9.116;2023-01-19T10:49:26;97052.84;;;7.18;56.03
13553;BME280;6847;48.830;9.116;2023-01-19T10:52:20;97037.69;;;6.73;56.33
13553;BME280;6847;48.830;9.116;2023-01-19T10:55:23;97057.88;;;6.65;55.95
13553;BME280;6847;48.830;9.116;2023-01-19T10:58:26;97049.84;;;6.40;56.04
13553;BME280;6847;48.830;9.116;2023-01-19T11:01:15;97040.72;;;6.30;56.13
13553;BME280;6847;48.830;9.116;2023-01-19T11:04:19;97055.19;;;6.50;55.45
13553;BME280;6847;48.830;9.116;2023-01-19T11:07:13;97050.91;;;7.33;55.15
13553;BME280;6847;48.830;9.116;2023-01-19T11:10:19;97054.56;;;7.97;54.37
13553;BME280;6847;48.830;9.116;2023-01-19T11:13:09;97029.34;;;7.83;53.98
13553;BME280;6847;48.830;9.116;2023-01-19T11:15:58;97054.22;;;8.08;53.82
13553;BME280;6847;48.830;9.116;2023-01-19T11:18:44;97014.75;;;7.84;53.87
13553;BME280;6847;48.830;9.116;2023-01-19T11:21:31;97051.63;;;8.27;53.89
13553;BME280;6847;48.830;9.116;2023-01-19T11:24:17;97032.22;;;8.83;53.06
13553;BME280;6847;48.830;9.116;2023-01-19T11:27:04;97052.78;;;9.88;52.18
13553;BME280;6847;48.830;9.116;2023-01-19T11:29:58;97039.16;;;10.77;51.52
13553;BME280;6847;48.830;9.116;2023-01-19T11:32:45;97043.56;;;10.40;51.56
13553;BME280;6847;48.830;9.116;2023-01-19T11:35:37;97007.97;;;9.63;52.48
13553;BME280;6847;48.830;9.116;2023-01-19T11:38:25;97037.84;;;9.90;52.36
13553;BME280;6847;48.830;9.116;2023-01-19T11:41:16;97049.28;;;10.85;52.69
13553;BME280;6847;48.830;9.116;2023-01-19T11:44:11;96968.34;;;10.56;51.50
13553;BME280;6847;48.830;9.116;2023-01-19T11:47:00;97019.56;;;10.52;52.00
13553;BME280;6847;48.830;9.116;2023-01-19T11:49:51;97031.34;;;9.91;52.75
13553;BME280;6847;48.830;9.116;2023-01-19T11:52:42;97032.78;;;9.27;52.83
13553;BME280;6847;48.830;9.116;2023-01-19T11:55:36;97028.81;;;8.48;53.29
13553;BME280;6847;48.830;9.116;2023-01-19T11:58:24;97031.38;;;7.96;53.94
13553;BME280;6847;48.830;9.116;2023-01-19T12:01:18;97034.41;;;7.50;54.04
13553;BME280;6847;48.830;9.116;2023-01-19T12:04:11;96944.97;;;6.55;54.25
13553;BME280;6847;48.830;9.116;2023-01-19T12:06:59;97039.00;;;6.80;54.64
13553;BME280;6847;48.830;9.116;2023-01-19T12:09:52;97037.44;;;6.59;54.42
13553;BME280;6847;48.830;9.116;2023-01-19T12:12:58;97018.16;;;6.26;54.61
13553;BME280;6847;48.830;9.116;2023-01-19T12:15:45;97027.28;;;6.15;54.69
13553;BME280;6847;48.830;9.116;2023-01-19T12:18:36;97034.81;;;6.03;54.40
13553;BME280;6847;48.830;9.116;2023-01-19T12:21:22;97021.88;;;5.85;54.02
13553;BME280;6847;48.830;9.116;2023-01-19T12:24:13;97043.91;;;5.87;54.69
13553;BME280;6847;48.830;9.116;2023-01-19T12:27:06;97018.38;;;5.74;54.14
13553;BME280;6847;48.830;9.116;2023-01-19T12:30:00;97038.84;;;5.96;53.88
13553;BME280;6847;48.830;9.116;2023-01-19T12:32:48;97039.66;;;6.06;54.20
13553;BME280;6847;48.830;9.116;2023-01-19T12:35:56;97036.97;;;6.21;54.17
13553;BME280;6847;48.830;9.116;2023-01-19T12:38:47;97045.03;;;6.26;53.63
13553;BME280;6847;48.830;9.116;2023-01-19T12:41:36;96990.22;;;5.92;54.00
13553;BME280;6847;48.830;9.116;2023-01-19T12:44:28;97021.66;;;6.12;53.46
13553;BME280;6847;48.830;9.116;2023-01-19T12:47:20;96959.03;;;5.76;53.51
13553;BME280;6847;48.830;9.116;2023-01-19T12:50:13;96994.50;;;5.98;54.01
13553;BME280;6847;48.830;9.116;2023-01-19T12:53:05;97053.59;;;6.39;54.08
13553;BME280;6847;48.830;9.116;2023-01-19T12:56:03;97060.59;;;6.40;53.57
13553;BME280;6847;48.830;9.116;2023-01-19T12:58:51;97061.41;;;6.35;53.66
13553;BME280;6847;48.830;9.116;2023-01-19T13:01:37;96996.41;;;5.92;54.32
13553;BME280;6847;48.830;9.116;2023-01-19T13:04:39;97067.59;;;6.41;54.26
13553;BME280;6847;48.830;9.116;2023-01-19T13:07:24;97063.81;;;6.42;54.21
13553;BME280;6847;48.830;9.116;2023-01-19T13:13:32;96996.69;;;5.96;54.19
13553;BME280;6847;48.830;9.116;2023-01-19T13:16:45;97058.44;;;6.42;54.40
13553;BME280;6847;48.830;9.116;2023-01-19T13:19:56;97056.53;;;6.47;53.89
13553;BME280;6847;48.830;9.116;2023-01-19T13:22:52;97065.97;;;6.50;53.99
13553;BME280;6847;48.830;9.116;2023-01-19T13:26:11;97065.97;;;6.50;54.38
13553;BME280;6847;48.830;9.116;2023-01-19T13:29:04;97062.19;;;6.41;54.29
13553;BME280;6847;48.830;9.116;2023-01-19T13:31:52;97064.91;;;6.36;54.14
13553;BME280;6847;48.830;9.116;2023-01-19T13:34:50;97065.97;;;6.29;54.62
13553;BME280;6847;48.830;9.116;2023-01-19T13:37:38;97068.13;;;6.22;53.97
13553;BME280;6847;48.830;9.116;2023-01-19T13:40:32;97059.53;;;6.15;54.59
13553;BME280;6847;48.830;9.116;2023-01-19T13:43:20;97061.16;;;6.06;54.22
13553;BME280;6847;48.830;9.116;2023-01-19T13:46:09;97072.16;;;6.00;54.16
13553;BME280;6847;48.830;9.116;2023-01-19T13:48:58;97008.69;;;5.53;54.95
13553;BME280;6847;48.830;9.116;2023-01-19T13:52:02;97078.84;;;5.87;54.83
13553;BME280;6847;48.830;9.116;2023-01-19T13:54:48;97075.59;;;5.85;54.86
13553;BME280;6847;48.830;9.116;2023-01-19T13:57:39;97076.19;;;5.92;54.35
13553;BME280;6847;48.830;9.116;2023-01-19T14:00:26;97069.44;;;5.84;54.42
13553;BME280;6847;48.830;9.116;2023-01-19T14:03:15;97072.41;;;5.88;54.33
13553;BME280;6847;48.830;9.116;2023-01-19T14:06:04;97084.25;;;6.02;54.29
13553;BME280;6847;48.830;9.116;2023-01-19T14:12:07;97089.63;;;6.07;54.16
13553;BME280;6847;48.830;9.116;2023-01-19T14:14:53;97086.94;;;5.97;54.77
13553;BME280;6847;48.830;9.116;2023-01-19T14:17:40;97090.69;;;5.96;54.57
13553;BME280;6847;48.830;9.116;2023-01-19T14:20:26;97078.88;;;5.97;54.86
13553;BME280;6847;48.830;9.116;2023-01-19T14:23:41;96992.84;;;5.51;54.28
13553;BME280;6847;48.830;9.116;2023-01-19T14:26:42;97057.09;;;5.93;54.30
13553;BME280;6847;48.830;9.116;2023-01-19T14:29:33;97081.56;;;6.12;54.81
13553;BME280;6847;48.830;9.116;2023-01-19T14:32:21;97080.47;;;6.18;54.22
13553;BME280;6847;48.830;9.116;2023-01-19T14:35:21;97085.59;;;6.20;54.57
13553;BME280;6847;48.830;9.116;2023-01-19T14:38:11;97081.03;;;6.20;54.79
13553;BME280;6847;48.830;9.116;2023-01-19T14:40:58;97088.56;;;6.23;54.43
13553;BME280;6847;48.830;9.116;2023-01-19T14:43:46;97081.03;;;6.25;54.65
13553;BME280;6847;48.830;9.116;2023-01-19T14:46:34;97059.53;;;6.15;54.26
13553;BME280;6847;48.830;9.116;2023-01-19T14:49:23;97075.66;;;6.25;54.86
13553;BME280;6847;48.830;9.116;2023-01-19T14:52:19;97071.34;;;6.19;54.76
13553;BME280;6847;48.830;9.116;2023-01-19T14:55:14;97081.56;;;6.12;54.58
13553;BME280;6847;48.830;9.116;2023-01-19T14:58:03;97068.13;;;5.97;54.68
13553;BME280;6847;48.830;9.116;2023-01-19T15:00:54;97079.94;;;6.01;54.81
13553;BME280;6847;48.830;9.116;2023-01-19T15:03:41;97087.47;;;6.04;54.60
13553;BME280;6847;48.830;9.116;2023-01-19T15:06:28;97074.56;;;5.91;54.38
13553;BME280;6847;48.830;9.116;2023-01-19T15:09:14;97086.94;;;6.02;54.95
13553;BME280;6847;48.830;9.116;2023-01-19T15:12:00;97089.09;;;5.95;54.66
13553;BME280;6847;48.830;9.116;2023-01-19T15:14:45;97090.16;;;5.94;54.67
13553;BME280;6847;48.830;9.116;2023-01-19T15:17:30;97083.16;;;5.93;54.66
13553;BME280;6847;48.830;9.116;2023-01-19T15:20:20;97081.03;;;5.95;54.90
13553;BME280;6847;48.830;9.116;2023-01-19T15:23:08;97092.31;;;5.97;55.01
13553;BME280;6847;48.830;9.116;2023-01-19T15:25:58;97079.97;;;5.96;55.05
13553;BME280;6847;48.830;9.116;2023-01-19T15:28:44;97078.59;;;5.93;54.56
13553;BME280;6847;48.830;9.116;2023-01-19T15:31:30;97020.75;;;5.50;54.53
13553;BME280;6847;48.830;9.116;2023-01-19T15:34:18;97082.06;;;5.89;54.99
13553;BME280;6847;48.830;9.116;2023-01-19T15:37:05;97082.88;;;5.89;54.96
13553;BME280;6847;48.830;9.116;2023-01-19T15:39:50;97082.88;;;5.89;54.88
13553;BME280;6847;48.830;9.116;2023-01-19T15:42:35;97080.44;;;5.83;54.53
13553;BME280;6847;48.830;9.116;2023-01-19T15:45:29;97079.63;;;5.77;54.41
13553;BME280;6847;48.830;9.116;2023-01-19T15:48:15;97087.16;;;5.75;55.02
13553;BME280;6847;48.830;9.116;2023-01-19T15:51:03;97053.53;;;5.52;55.10
13553;BME280;6847;48.830;9.116;2023-01-19T15:53:50;96977.19;;;5.03;55.10
13553;BME280;6847;48.830;9.116;2023-01-19T15:56:39;97074.75;;;5.64;54.65
13553;BME280;6847;48.830;9.116;2023-01-19T15:59:24;96961.06;;;4.93;55.09
13553;BME280;6847;48.830;9.116;2023-01-19T16:02:10;97075.03;;;5.63;54.50
13553;BME280;6847;48.830;9.116;2023-01-19T16:04:59;97072.34;;;5.57;54.39
13553;BME280;6847;48.830;9.116;2023-01-19T16:07:44;96894.13;;;4.40;54.43
13553;BME280;6847;48.830;9.116;2023-01-19T16:10:33;97003.19;;;5.02;55.19
13553;BME280;6847;48.830;9.116;2023-01-19T16:13:19;97075.53;;;5.44;55.20
13553;BME280;6847;48.830;9.116;2023-01-19T16:16:06;97078.16;;;5.39;54.52
13553;BME280;6847;48.830;9.116;2023-01-19T16:18:51;97076.59;;;5.38;54.68
13553;BME280;6847;48.830;9.116;2023-01-19T16:21:36;97059.34;;;5.24;54.64
13553;BME280;6847;48.830;9.116;2023-01-19T16:24:24;97042.41;;;5.08;54.89
13553;BME280;6847;48.830;9.116;2023-01-19T16:27:11;97082.44;;;5.25;55.33
13553;BME280;6847;48.830;9.116;2023-01-19T16:29:58;97078.13;;;5.19;54.86
13553;BME280;6847;48.830;9.116;2023-01-19T16:32:47;97078.59;;;5.11;55.08
13553;BME280;6847;48.830;9.116;2023-01-19T16:35:33;97061.91;;;4.89;55.31
13553;BME280;6847;48.830;9.116;2023-01-19T16:38:18;97080.38;;;4.90;54.80
13553;BME280;6847;48.830;9.116;2023-01-19T16:41:03;97077.66;;;4.80;54.69
13553;BME280;6847;48.830;9.116;2023-01-19T16:43:51;96955.22;;;3.91;55.28
13553;BME280;6847;48.830;9.116;2023-01-19T16:46:43;97028.88;;;4.31;55.29
13553;BME280;6847;48.830;9.116;2023-01-19T16:49:29;97083.19;;;4.58;55.27
13553;BME280;6847;48.830;9.116;2023-01-19T16:52:15;97057.31;;;4.42;55.27
13553;BME280;6847;48.830;9.116;2023-01-19T16:55:00;97079.38;;;4.49;54.79
13553;BME280;6847;48.830;9.116;2023-01-19T16:57:50;97077.44;;;4.44;55.22
13553;BME280;6847;48.830;9.116;2023-01-19T17:00:41;97085.19;;;4.41;54.81
13553;BME280;6847;48.830;9.116;2023-01-19T17:03:26;97086.22;;;4.35;54.80
13553;BME280;6847;48.830;9.116;2023-01-19T17:06:14;97082.97;;;4.28;55.61
13553;BME280;6847;48.830;9.116;2023-01-19T17:09:00;97054.91;;;4.03;54.73
13553;BME280;6847;48.830;9.116;2023-01-19T17:11:45;97090.84;;;4.13;55.11
13553;BME280;6847;48.830;9.116;2023-01-19T17:14:31;97090.28;;;4.05;55.17
13553;BME280;6847;48.830;9.116;2023-01-19T17:17:17;97092.91;;;4.00;54.97
13553;BME280;6847;48.830;9.116;2023-01-19T17:20:03;97088.56;;;3.94;55.84
13553;BME280;6847;48.830;9.116;2023-01-19T17:22:49;97070.69;;;3.73;55.68
13553;BME280;6847;48.830;9.116;2023-01-19T17:25:34;97102.41;;;3.86;55.20
13553;BME280;6847;48.830;9.116;2023-01-19T17:28:20;97094.88;;;3.83;56.15
13553;BME280;6847;48.830;9.116;2023-01-19T17:31:06;97099.16;;;3.79;56.03
13553;BME280;6847;48.830;9.116;2023-01-19T17:33:53;97091.28;;;3.72;55.19
13553;BME280;6847;48.830;9.116;2023-01-19T17:36:39;96939.34;;;2.67;56.01
13553;BME280;6847;48.830;9.116;2023-01-19T17:39:24;97097.88;;;3.60;55.96
13553;BME280;6847;48.830;9.116;2023-01-19T17:42:09;97098.88;;;3.54;56.08
13553;BME280;6847;48.830;9.116;2023-01-19T17:44:54;97091.28;;;3.46;56.12
13553;BME280;6847;48.830;9.116;2023-01-19T17:47:40;97098.72;;;3.39;55.79
13553;BME280;6847;48.830;9.116;2023-01-19T17:50:26;96977.31;;;2.47;55.82
13553;BME280;6847;48.830;9.116;2023-01-19T17:53:12;97098.84;;;3.27;56.42
13553;BME280;6847;48.830;9.116;2023-01-19T17:56:02;97092.56;;;3.16;55.69
13553;BME280;6847;48.830;9.116;2023-01-19T17:58:48;96691.56;;;0.51;55.55
13553;BME280;6847;48.830;9.116;2023-01-19T18:02:02;97097.97;;;3.00;56.57
13553;BME280;6847;48.830;9.116;2023-01-19T18:04:47;96763.47;;;0.68;55.81
13553;BME280;6847;48.830;9.116;2023-01-19T18:07:34;97101.25;;;2.85;55.88
13553;BME280;6847;48.830;9.116;2023-01-19T18:10:19;97107.09;;;2.82;56.80
13553;BME280;6847;48.830;9.116;2023-01-19T18:13:04;97104.19;;;2.83;56.14
13553;BME280;6847;48.830;9.116;2023-01-19T18:15:49;97108.16;;;2.81;56.61
13553;BME280;6847;48.830;9.116;2023-01-19T18:18:36;97059.00;;;2.43;56.40
13553;BME280;6847;48.830;9.116;2023-01-19T18:21:23;97106.59;;;2.85;56.21
13553;BME280;6847;48.830;9.116;2023-01-19T18:24:15;96872.72;;;1.35;56.16
13553;BME280;6847;48.830;9.116;2023-01-19T18:27:00;96884.03;;;1.42;56.50
13553;BME280;6847;48.830;9.116;2023-01-19T18:29:46;97057.09;;;2.60;56.21
13553;BME280;6847;48.830;9.116;2023-01-19T18:32:33;96872.38;;;1.48;56.26
13553;BME280;6847;48.830;9.116;2023-01-19T18:35:18;97106.88;;;3.05;nan
13553;BME280;6847;48.830;9.116;2023-01-19T18:38:04;97026.66;;;2.62;56.22
13553;BME280;6847;48.830;9.116;2023-01-19T18:41:00;97113.47;;;3.19;55.92
13553;BME280;6847;48.830;9.116;2023-01-19T18:43:46;97052.16;;;2.91;56.68
13553;BME280;6847;48.830;9.116;2023-01-19T18:46:32;97100.16;;;3.24;56.44
13553;BME280;6847;48.830;9.116;2023-01-19T18:49:17;97106.19;;;3.37;56.66
13553;BME280;6847;48.830;9.116;2023-01-19T18:52:03;97111.59;;;3.42;56.80
13553;BME280;6847;48.830;9.116;2023-01-19T18:54:49;97103.63;;;3.47;56.31
13553;BME280;6847;48.830;9.116;2023-01-19T18:57:36;96857.25;;;1.92;55.83
13553;BME280;6847;48.830;9.116;2023-01-19T19:00:22;97027.66;;;2.99;56.72
13553;BME280;6847;48.830;9.116;2023-01-19T19:03:07;97104.22;;;3.54;56.42
13553;BME280;6847;48.830;9.116;2023-01-19T19:05:53;97100.50;;;3.55;56.79
13553;BME280;6847;48.830;9.116;2023-01-19T19:08:38;97096.16;;;3.49;56.40
13553;BME280;6847;48.830;9.116;2023-01-19T19:11:25;97114.91;;;3.54;56.74
13553;BME280;6847;48.830;9.116;2023-01-19T19:14:11;97097.25;;;3.53;56.32
13553;BME280;6847;48.830;9.116;2023-01-19T19:16:58;97096.72;;;3.51;56.25
13553;BME280;6847;48.830;9.116;2023-01-19T19:19:43;97072.00;;;3.44;57.01
13553;BME280;6847;48.830;9.116;2023-01-19T19:22:28;97089.28;;;3.58;57.19
13553;BME280;6847;48.830;9.116;2023-01-19T19:25:14;97093.63;;;3.64;56.98
13553;BME280;6847;48.830;9.116;2023-01-19T19:27:59;97107.06;;;3.69;56.25
13553;BME280;6847;48.830;9.116;2023-01-19T19:30:46;96886.63;;;2.36;56.12
13553;BME280;6847;48.830;9.116;2023-01-19T19:33:36;97048.72;;;3.44;56.53
13553;BME280;6847;48.830;9.116;2023-01-19T19:36:22;97107.22;;;3.84;57.12
13553;BME280;6847;48.830;9.116;2023-01-19T19:39:08;97114.75;;;3.87;56.25
13553;BME280;6847;48.830;9.116;2023-01-19T19:41:54;97053.09;;;3.50;57.14
13553;BME280;6847;48.830;9.116;2023-01-19T19:44:39;97059.53;;;3.54;56.27
13553;BME280;6847;48.830;9.116;2023-01-19T19:47:26;97114.25;;;3.90;57.18
13553;BME280;6847;48.830;9.116;2023-01-19T19:50:13;97114.53;;;3.94;56.98
13553;BME280;6847;48.830;9.116;2023-01-19T19:52:58;97116.97;;;3.95;56.64
13553;BME280;6847;48.830;9.116;2023-01-19T19:55:54;97094.13;;;3.88;57.04
13553;BME280;6847;48.830;9.116;2023-01-19T19:58:40;97034.38;;;3.50;56.97
13553;BME280;6847;48.830;9.116;2023-01-19T20:01:27;97002.88;;;3.30;56.98
13553;BME280;6847;48.830;9.116;2023-01-19T20:04:15;97119.72;;;4.05;57.04
13553;BME280;6847;48.830;9.116;2023-01-19T20:07:02;97055.66;;;3.67;56.65
13553;BME280;6847;48.830;9.116;2023-01-19T20:09:48;96970.06;;;3.13;56.63
13553;BME280;6847;48.830;9.116;2023-01-19T20:12:36;97087.41;;;3.85;56.31
13553;BME280;6847;48.830;9.116;2023-01-19T20:15:21;97117.06;;;4.05;57.16
13553;BME280;6847;48.830;9.116;2023-01-19T20:18:27;97125.06;;;4.00;56.57
13553;BME280;6847;48.830;9.116;2023-01-19T20:21:33;97122.31;;;3.95;56.97
13553;BME280;6847;48.830;9.116;2023-01-19T20:24:38;97091.59;;;3.76;57.39
13553;BME280;6847;48.830;9.116;2023-01-19T20:27:37;97066.00;;;3.58;56.99
13553;BME280;6847;48.830;9.116;2023-01-19T20:30:22;97122.88;;;3.97;57.10
13553;BME280;6847;48.830;9.116;2023-01-19T20:33:09;97053.91;;;3.51;57.19
13553;BME280;6847;48.830;9.116;2023-01-19T20:35:59;97128.25;;;4.02;57.18
13553;BME280;6847;48.830;9.116;2023-01-19T20:38:46;97096.00;;;3.87;56.54
13553;BME280;6847;48.830;9.116;2023-01-19T20:41:32;97130.41;;;4.00;56.57
13553;BME280;6847;48.830;9.116;2023-01-19T20:44:17;97133.03;;;3.95;57.39
13553;BME280;6847;48.830;9.116;2023-01-19T20:47:03;97032.22;;;3.25;57.24
13553;BME280;6847;48.830;9.116;2023-01-19T20:49:48;97139.69;;;3.93;57.27
13553;BME280;6847;48.830;9.116;2023-01-19T20:52:34;97146.09;;;3.92;57.65
13553;BME280;6847;48.830;9.116;2023-01-19T20:55:20;97128.06;;;3.82;57.05
13553;BME280;6847;48.830;9.116;2023-01-19T20:58:05;97146.66;;;3.94;57.37
13553;BME280;6847;48.830;9.116;2023-01-19T21:00:51;97156.06;;;3.96;56.57
13553;BME280;6847;48.830;9.116;2023-01-19T21:03:36;97150.72;;;3.96;57.60
13553;BME280;6847;48.830;9.116;2023-01-19T21:06:21;97156.31;;;3.95;56.87
13553;BME280;6847;48.830;9.116;2023-01-19T21:09:08;97121.03;;;3.71;57.29
13553;BME280;6847;48.830;9.116;2023-01-19T21:11:55;97156.56;;;3.93;56.73
13553;BME280;6847;48.830;9.116;2023-01-19T21:14:40;97070.91;;;3.40;57.12
13553;BME280;6847;48.830;9.116;2023-01-19T21:17:26;97153.03;;;3.88;57.55
13553;BME280;6847;48.830;9.116;2023-01-19T21:20:12;97158.09;;;3.84;57.35
13553;BME280;6847;48.830;9.116;2023-01-19T21:22:58;97044.84;;;3.03;57.03
13553;BME280;6847;48.830;9.116;2023-01-19T21:25:47;97163.31;;;3.74;57.76
13553;BME280;6847;48.830;9.116;2023-01-19T21:28:35;97167.06;;;3.73;57.84
13553;BME280;6847;48.830;9.116;2023-01-19T21:31:23;97159.22;;;3.66;57.05
13553;BME280;6847;48.830;9.116;2023-01-19T21:34:09;97166.06;;;3.79;56.91
13553;BME280;6847;48.830;9.116;2023-01-19T21:36:54;97169.59;;;3.85;56.71
13553;BME280;6847;48.830;9.116;2023-01-19T21:39:39;97129.22;;;3.64;56.78
13553;BME280;6847;48.830;9.116;2023-01-19T21:42:24;97169.91;;;3.88;56.93
13553;BME280;6847;48.830;9.116;2023-01-19T21:45:11;97179.00;;;3.87;57.38
13553;BME280;6847;48.830;9.116;2023-01-19T21:47:56;97168.78;;;3.84;57.24
13553;BME280;6847;48.830;9.116;2023-01-19T21:51:00;97168.50;;;3.81;56.89
13553;BME280;6847;48.830;9.116;2023-01-19T21:53:48;97109.34;;;3.33;57.03
13553;BME280;6847;48.830;9.116;2023-01-19T21:56:35;97133.63;;;3.49;57.50
13553;BME280;6847;48.830;9.116;2023-01-19T21:59:21;97019.84;;;2.71;56.82
13553;BME280;6847;48.830;9.116;2023-01-19T22:02:10;97088.09;;;3.00;57.09
13553;BME280;6847;48.830;9.116;2023-01-19T22:04:55;97158.13;;;3.41;57.64
13553;BME280;6847;48.830;9.116;2023-01-19T22:07:40;97188.78;;;3.55;57.66
13553;BME280;6847;48.830;9.116;2023-01-19T22:10:26;96935.38;;;1.88;57.82
13553;BME280;6847;48.830;9.116;2023-01-19T22:13:11;97197.50;;;3.45;57.62
13553;BME280;6847;48.830;9.116;2023-01-19T22:16:01;96984.06;;;1.95;57.75
13553;BME280;6847;48.830;9.116;2023-01-19T22:18:50;97193.34;;;3.32;57.20
13553;BME280;6847;48.830;9.116;2023-01-19T22:21:36;97197.81;;;3.27;57.70
13553;BME280;6847;48.830;9.116;2023-01-19T22:24:22;96935.72;;;1.58;57.72
13553;BME280;6847;48.830;9.116;2023-01-19T22:27:07;97121.38;;;2.71;57.73
13553;BME280;6847;48.830;9.116;2023-01-19T22:29:53;97219.03;;;3.12;57.67
13553;BME280;6847;48.830;9.116;2023-01-19T22:32:41;97199.41;;;3.06;57.90
13553;BME280;6847;48.830;9.116;2023-01-19T22:35:29;97205.25;;;3.03;57.47
13553;BME280;6847;48.830;9.116;2023-01-19T22:38:14;97200.88;;;2.97;57.52
13553;BME280;6847;48.830;9.116;2023-01-19T22:41:00;97139.78;;;2.50;57.96
13553;BME280;6847;48.830;9.116;2023-01-19T22:43:54;96975.03;;;1.45;57.92
13553;BME280;6847;48.830;9.116;2023-01-19T22:46:40;96982.75;;;1.47;57.70
13553;BME280;6847;48.830;9.116;2023-01-19T22:49:26;97158.81;;;2.54;58.10
13553;BME280;6847;48.830;9.116;2023-01-19T22:52:15;97095.38;;;2.11;57.95
13553;BME280;6847;48.830;9.116;2023-01-19T22:55:00;97164.97;;;2.54;57.69
13553;BME280;6847;48.830;9.116;2023-01-19T22:57:45;97209.16;;;2.79;57.83
13553;BME280;6847;48.830;9.116;2023-01-19T23:00:31;97215.66;;;2.83;58.19
13553;BME280;6847;48.830;9.116;2023-01-19T23:03:20;96956.72;;;1.21;57.48
13553;BME280;6847;48.830;9.116;2023-01-19T23:06:08;97110.41;;;2.17;57.50
13553;BME280;6847;48.830;9.116;2023-01-19T23:08:57;97213.13;;;2.93;58.23
13553;BME280;6847;48.830;9.116;2023-01-19T23:11:44;97122.06;;;2.44;58.37
13553;BME280;6847;48.830;9.116;2023-01-19T23:14:31;97212.53;;;3.08;58.48